x

Eel River - 17nm Wsw Of Eureka, Ca (46022) Wave Buoy

7:50pm - Mon 3rd Aug 2015 All times are PDT. -7 hours from GMT.

  • Sig Wave height 3.6ft
  • Swell Direction
  • Peak Period 8s
  • Average Period 7s
  • Wind
  • Sea Temp 57°f
  • Air Temp 59°f
  • Sea Pressure 1015.6mb
  • Eel River - 17nm Wsw Of Eureka, Ca
  • Eel River - 17nm Wsw Of Eureka, Ca

More Historic Weather Station data

Upgrade to MSW Pro to gain access to the past 30 days of data for over 8000 Wavebouys and Weather Stations around the globe.

Join Pro

Comparision Forecast

View Surf forecast
   
Mon 08/03 7:50pm 3.5ft 8s 7s  -  2 mph 1015.6mb 57f 59f
6:50pm 3ft 8s 7s  -  2 mph 1015.3mb 56f 59f
5:50pm 3.5ft 8s 7s 2
mph
1015.4mb 56f 59f
4:50pm 3.5ft 7s 7s 4
mph
1015.5mb 56f 59f
3:50pm 3.5ft 8s 7s 4
mph
1015.7mb 57f 61f
2:50pm 3.5ft 8s 7s 4
mph
1015.8mb 58f 60f
1:50pm 3.5ft 7s 7s 2
mph
1015.7mb 58f 61f
12:50pm 3.5ft 7s 7s 2
mph
1015.7mb 57f 59f
11:50am 3.5ft 8s 7s 2 4 mph 1015.8mb 57f 58f
10:50am 3.5ft 8s 7s 2
mph
1015.7mb 56f 58f
9:50am 3.5ft 7s 7s 2
mph
1015.6mb 55f 57f
8:50am 3ft 8s 7s  -  mph 1015.5mb 55f 57f
7:50am 3ft 8s 7s  -  2 mph 1015.2mb 55f 57f
6:50am 3ft 8s 7s 2
mph
1014.9mb 55f 57f
5:50am 3ft 8s 7s 2
mph
1014.5mb 55f 57f
4:50am 3ft 7s 7s 2
mph
1014.2mb 55f 58f
3:50am 3ft 7s 7s 2
mph
1013.9mb 55f 59f
2:50am 3.5ft 8s 7s  -  2 mph 1013.8mb 55f 59f
1:50am 3.5ft 8s 7s  -  2 mph 1013.9mb 55f 58f
12:50am 3.5ft 8s 7s  -  2 mph 1014mb 55f 58f
Sun 08/02 11:50pm 4ft 8s 7s 2
mph
1014.3mb 55f 58f
10:50pm 3.5ft 8s 7s  -  2 mph 1014.5mb 55f 58f
9:50pm 3.5ft 8s 7s 2 4 mph 1014.5mb 55f 59f
8:50pm 4ft 8s 7s 4 7 mph 1014.3mb 56f 58f
7:50pm 4ft 8s 8s 4
mph
1014.2mb 58f 59f
6:50pm 4ft 8s 7s 4
mph
1014mb 59f 59f
5:50pm 3.5ft 8s 7s 4
mph
1014.2mb 58f 60f
4:50pm 4ft 8s 7s 4 7 mph 1014.6mb 58f 59f
3:50pm 4.5ft 8s 7s 2 4 mph 1015mb 57f 60f
2:50pm 4ft 8s 7s 2 4 mph 1015.3mb 55f 58f
1:50pm 4.5ft 8s 7s 4
mph
1015.4mb 56f 58f
12:50pm 4ft 8s 7s 7
mph
1015.6mb 56f 58f
11:50am 4.5ft 8s 7s 4 7 mph 1015.6mb 56f 57f
10:50am 4.5ft 8s 7s 4
mph
1015.8mb 59f 58f
9:50am 4.5ft 8s 7s 7
mph
1015.6mb 59f 59f
8:50am 4.5ft 8s 7s 7
mph
1015.4mb 59f 58f
7:50am 4.5ft 8s 7s 4
mph
1015mb 59f 59f
6:50am 4ft 8s 7s 2 4 mph 1014.8mb 59f 59f
5:50am 3.5ft 8s 7s 2 4 mph 1014.6mb 59f 58f
4:50am 4.5ft 8s 7s 4
mph
1014.3mb 59f 58f
3:50am 4ft 8s 7s 7 9 mph 1014mb 59f 58f
2:50am 4ft 8s 7s 7 9 mph 1014.1mb 58f 57f
1:50am 4ft 8s 7s 7 9 mph 1014.8mb 58f 57f
12:50am 3.5ft 8s 7s 9 11 mph 1015mb 57f 58f
Sat 08/01 11:50pm 4.5ft 8s 7s 7
mph
1015.2mb 57f 58f
10:50pm 4.5ft 8s 7s 11 16 mph 1015.1mb 58f 60f
9:50pm 4.5ft 8s 7s 9 11 mph 1014.6mb 58f 58f
8:50pm 4.5ft 8s 7s 11 13 mph 1014.1mb 59f 58f
7:50pm 5ft 8s 7s 11 16 mph 1014.2mb 59f 59f
6:50pm 5ft 8s 7s 11 13 mph 1013.9mb 60f 59f
5:50pm 4ft 7s 6s 9 11 mph 1014.3mb 60f 59f
4:50pm 4.5ft 8s 6s 9 11 mph 1014.6mb 60f 59f
3:50pm 4.5ft 8s 6s 11 13 mph 1015.2mb 59f 59f
2:50pm 5ft 8s 7s 9 13 mph 1015.5mb 59f 59f
1:50pm 4ft 8s 7s 11 13 mph 1015.8mb 59f 58f
12:50pm 4ft 8s 6s 7 9 mph 1016mb 58f 59f
11:50am 4.5ft 8s 7s 7
mph
1016mb 58f 59f
10:50am 4.5ft 8s 7s 9 11 mph 1015.9mb 58f 59f
9:50am 4.5ft 8s 6s 11 13 mph 1015.5mb 58f 59f
8:50am 4.5ft 8s 6s 18 20 mph 1015.4mb 58f 58f
7:50am 4.5ft 8s 6s 13 16 mph 1015.5mb 59f 58f
6:50am 4.5ft 7s 6s 18 20 mph 1015.2mb 59f 58f
5:50am 4.5ft 7s 6s 18 20 mph 1014.4mb 59f 59f
4:50am 4.5ft 8s 6s 16 20 mph 1014mb 59f 59f
3:50am 4ft 7s 6s 13 18 mph 1014mb 59f 59f
2:50am 4.5ft 7s 7s 11 13 mph 1013.6mb 59f 59f
1:50am 4ft 7s 7s 11 16 mph 1013.7mb 59f 58f
12:50am 4ft 8s 6s 13 16 mph 1013.9mb 59f 59f
Fri 07/31 11:50pm 4ft 14s 6s 13 18 mph 1014.2mb 59f 59f
10:50pm 3.5ft 14s 6s 13 18 mph 1014.9mb 59f 58f
9:50pm 4.5ft 14s 5s 16 18 mph 1015.3mb 60f 59f
8:50pm 4.5ft 7s 5s 13 18 mph 1015.5mb 60f 57f
7:50pm 4.5ft 14s 5s 20 22 mph 1014.2mb 60f 58f
6:50pm 4.5ft 15s 6s 22 27 mph 1014.3mb 60f 58f
5:50pm 4ft 15s 6s 20 22 mph 1014.6mb 59f 58f
4:50pm 4.5ft 15s 6s 16 18 mph 1014.3mb 59f 57f
3:50pm 4.5ft 15s 7s 13 16 mph 1014.7mb 60f 57f
2:50pm 4ft 8s 7s 11 13 mph 1015.3mb 60f 56f
1:50pm 4.5ft 14s 7s 11 13 mph 1015.9mb 60f 56f
12:50pm 4ft 8s 8s 13
mph
1016.3mb 60f 56f
11:50am 4ft 14s 8s 7 9 mph 1016.7mb 60f 56f
10:50am 4.5ft 14s 8s 2 4 mph 1016.5mb 60f 56f
9:50am 4.5ft 15s 7s 2
mph
1016.5mb 60f 55f
8:50am 4.5ft 15s 8s 2 4 mph 1016.8mb 59f 55f
7:50am 4.5ft 15s 7s 4
mph
1016.8mb 59f 55f
6:50am 4.5ft 15s 8s 2 4 mph 1016.8mb 59f 55f
5:50am 5ft 15s 8s 4 7 mph 1016.6mb 59f 55f
4:50am 4.5ft 15s 7s 4 7 mph 1016.4mb 59f 56f